sensor_id;sensor_type;location;lat;lon;timestamp;P1;durP1;ratioP1;P2;durP2;ratioP2
5845;SDS011;2949;50.778;7.094;2023-06-10T00:02:25;8.43;;;6.80;;
5845;SDS011;2949;50.778;7.094;2023-06-10T00:04:52;8.33;;;6.80;;
5845;SDS011;2949;50.778;7.094;2023-06-10T00:07:17;7.70;;;6.90;;
5845;SDS011;2949;50.778;7.094;2023-06-10T00:09:43;9.73;;;7.70;;
5845;SDS011;2949;50.778;7.094;2023-06-10T00:12:09;11.30;;;6.50;;
5845;SDS011;2949;50.778;7.094;2023-06-10T00:14:36;8.70;;;6.80;;
5845;SDS011;2949;50.778;7.094;2023-06-10T00:17:03;7.30;;;6.60;;
5845;SDS011;2949;50.778;7.094;2023-06-10T00:19:29;8.30;;;7.33;;
5845;SDS011;2949;50.778;7.094;2023-06-10T00:21:58;9.40;;;5.93;;
5845;SDS011;2949;50.778;7.094;2023-06-10T00:24:24;9.20;;;6.30;;
5845;SDS011;2949;50.778;7.094;2023-06-10T00:26:49;7.37;;;6.07;;
5845;SDS011;2949;50.778;7.094;2023-06-10T00:29:15;11.37;;;6.93;;
5845;SDS011;2949;50.778;7.094;2023-06-10T00:31:41;7.93;;;6.30;;
5845;SDS011;2949;50.778;7.094;2023-06-10T00:34:07;6.63;;;5.80;;
5845;SDS011;2949;50.778;7.094;2023-06-10T00:36:33;9.67;;;6.57;;
5845;SDS011;2949;50.778;7.094;2023-06-10T00:38:58;11.73;;;6.43;;
5845;SDS011;2949;50.778;7.094;2023-06-10T00:41:24;8.40;;;6.30;;
5845;SDS011;2949;50.778;7.094;2023-06-10T00:43:51;10.23;;;5.73;;
5845;SDS011;2949;50.778;7.094;2023-06-10T00:46:17;15.93;;;7.00;;
5845;SDS011;2949;50.778;7.094;2023-06-10T00:48:44;9.90;;;6.63;;
5845;SDS011;2949;50.778;7.094;2023-06-10T00:51:10;8.17;;;7.07;;
5845;SDS011;2949;50.778;7.094;2023-06-10T00:53:37;8.10;;;6.57;;
5845;SDS011;2949;50.778;7.094;2023-06-10T00:56:04;9.30;;;7.40;;
5845;SDS011;2949;50.778;7.094;2023-06-10T00:58:30;7.43;;;5.93;;
5845;SDS011;2949;50.778;7.094;2023-06-10T01:00:56;10.20;;;6.83;;
5845;SDS011;2949;50.778;7.094;2023-06-10T01:03:22;11.23;;;6.50;;
5845;SDS011;2949;50.778;7.094;2023-06-10T01:05:50;8.67;;;6.80;;
5845;SDS011;2949;50.778;7.094;2023-06-10T01:08:39;7.27;;;6.00;;
5845;SDS011;2949;50.778;7.094;2023-06-10T01:11:14;10.00;;;7.13;;
5845;SDS011;2949;50.778;7.094;2023-06-10T01:13:45;10.93;;;6.83;;
5845;SDS011;2949;50.778;7.094;2023-06-10T01:16:13;7.00;;;6.30;;
5845;SDS011;2949;50.778;7.094;2023-06-10T01:18:39;6.63;;;6.03;;
5845;SDS011;2949;50.778;7.094;2023-06-10T01:21:05;8.10;;;6.70;;
5845;SDS011;2949;50.778;7.094;2023-06-10T01:23:32;10.00;;;7.00;;
5845;SDS011;2949;50.778;7.094;2023-06-10T01:26:02;12.80;;;8.03;;
5845;SDS011;2949;50.778;7.094;2023-06-10T01:28:51;11.40;;;6.70;;
5845;SDS011;2949;50.778;7.094;2023-06-10T01:34:01;10.10;;;7.83;;
5845;SDS011;2949;50.778;7.094;2023-06-10T01:36:31;13.13;;;6.97;;
5845;SDS011;2949;50.778;7.094;2023-06-10T01:38:58;9.30;;;8.13;;
5845;SDS011;2949;50.778;7.094;2023-06-10T01:41:25;12.03;;;8.20;;
5845;SDS011;2949;50.778;7.094;2023-06-10T01:43:51;9.40;;;7.23;;
5845;SDS011;2949;50.778;7.094;2023-06-10T01:46:17;10.23;;;7.97;;
5845;SDS011;2949;50.778;7.094;2023-06-10T01:48:44;10.13;;;8.40;;
5845;SDS011;2949;50.778;7.094;2023-06-10T01:51:10;10.50;;;7.53;;
5845;SDS011;2949;50.778;7.094;2023-06-10T01:53:35;14.77;;;7.87;;
5845;SDS011;2949;50.778;7.094;2023-06-10T01:56:01;10.10;;;7.77;;
5845;SDS011;2949;50.778;7.094;2023-06-10T01:58:26;11.70;;;7.70;;
5845;SDS011;2949;50.778;7.094;2023-06-10T02:00:52;9.80;;;7.23;;
5845;SDS011;2949;50.778;7.094;2023-06-10T02:03:17;16.70;;;8.03;;
5845;SDS011;2949;50.778;7.094;2023-06-10T02:05:43;11.00;;;8.53;;
5845;SDS011;2949;50.778;7.094;2023-06-10T02:08:09;15.10;;;8.47;;
5845;SDS011;2949;50.778;7.094;2023-06-10T02:10:34;9.70;;;8.60;;
5845;SDS011;2949;50.778;7.094;2023-06-10T02:13:00;13.70;;;8.10;;
5845;SDS011;2949;50.778;7.094;2023-06-10T02:15:25;11.17;;;8.30;;
5845;SDS011;2949;50.778;7.094;2023-06-10T02:17:51;10.50;;;8.47;;
5845;SDS011;2949;50.778;7.094;2023-06-10T02:20:17;9.10;;;8.00;;
5845;SDS011;2949;50.778;7.094;2023-06-10T02:22:44;10.10;;;8.03;;
5845;SDS011;2949;50.778;7.094;2023-06-10T02:25:09;12.03;;;8.10;;
5845;SDS011;2949;50.778;7.094;2023-06-10T02:27:35;14.20;;;7.37;;
5845;SDS011;2949;50.778;7.094;2023-06-10T02:30:00;13.90;;;7.60;;
5845;SDS011;2949;50.778;7.094;2023-06-10T02:32:26;9.60;;;7.23;;
5845;SDS011;2949;50.778;7.094;2023-06-10T02:34:52;8.30;;;7.10;;
5845;SDS011;2949;50.778;7.094;2023-06-10T02:37:18;8.27;;;7.43;;
5845;SDS011;2949;50.778;7.094;2023-06-10T02:39:43;8.10;;;7.30;;
5845;SDS011;2949;50.778;7.094;2023-06-10T02:42:09;11.43;;;8.33;;
5845;SDS011;2949;50.778;7.094;2023-06-10T02:44:35;10.37;;;8.60;;
5845;SDS011;2949;50.778;7.094;2023-06-10T02:47:01;12.20;;;8.20;;
5845;SDS011;2949;50.778;7.094;2023-06-10T02:49:26;17.20;;;8.50;;
5845;SDS011;2949;50.778;7.094;2023-06-10T02:51:55;12.30;;;9.57;;
5845;SDS011;2949;50.778;7.094;2023-06-10T02:54:22;17.40;;;8.93;;
5845;SDS011;2949;50.778;7.094;2023-06-10T02:56:48;23.20;;;9.60;;
5845;SDS011;2949;50.778;7.094;2023-06-10T02:59:14;12.07;;;9.80;;
5845;SDS011;2949;50.778;7.094;2023-06-10T03:01:40;10.73;;;9.63;;
5845;SDS011;2949;50.778;7.094;2023-06-10T03:04:05;19.10;;;10.20;;
5845;SDS011;2949;50.778;7.094;2023-06-10T03:06:32;12.73;;;9.90;;
5845;SDS011;2949;50.778;7.094;2023-06-10T03:09:00;11.57;;;9.60;;
5845;SDS011;2949;50.778;7.094;2023-06-10T03:11:26;11.10;;;9.63;;
5845;SDS011;2949;50.778;7.094;2023-06-10T03:13:52;15.23;;;9.60;;
5845;SDS011;2949;50.778;7.094;2023-06-10T03:16:18;10.97;;;9.87;;
5845;SDS011;2949;50.778;7.094;2023-06-10T03:18:45;11.40;;;9.67;;
5845;SDS011;2949;50.778;7.094;2023-06-10T03:21:10;12.40;;;10.10;;
5845;SDS011;2949;50.778;7.094;2023-06-10T03:23:36;15.10;;;9.87;;
5845;SDS011;2949;50.778;7.094;2023-06-10T03:26:03;11.97;;;9.80;;
5845;SDS011;2949;50.778;7.094;2023-06-10T03:28:30;19.90;;;10.30;;
5845;SDS011;2949;50.778;7.094;2023-06-10T03:30:55;16.53;;;10.40;;
5845;SDS011;2949;50.778;7.094;2023-06-10T03:33:21;12.33;;;10.60;;
5845;SDS011;2949;50.778;7.094;2023-06-10T03:35:47;15.07;;;10.73;;
5845;SDS011;2949;50.778;7.094;2023-06-10T03:38:12;15.00;;;9.70;;
5845;SDS011;2949;50.778;7.094;2023-06-10T03:40:38;12.10;;;10.13;;
5845;SDS011;2949;50.778;7.094;2023-06-10T03:43:03;13.03;;;10.47;;
5845;SDS011;2949;50.778;7.094;2023-06-10T03:45:29;11.60;;;9.83;;
5845;SDS011;2949;50.778;7.094;2023-06-10T03:47:54;13.80;;;10.70;;
5845;SDS011;2949;50.778;7.094;2023-06-10T03:50:21;13.90;;;10.00;;
5845;SDS011;2949;50.778;7.094;2023-06-10T03:52:48;12.70;;;9.63;;
5845;SDS011;2949;50.778;7.094;2023-06-10T03:55:14;15.00;;;10.83;;
5845;SDS011;2949;50.778;7.094;2023-06-10T03:57:41;11.07;;;9.43;;
5845;SDS011;2949;50.778;7.094;2023-06-10T04:00:07;13.37;;;10.20;;
5845;SDS011;2949;50.778;7.094;2023-06-10T04:02:37;16.20;;;9.20;;
5845;SDS011;2949;50.778;7.094;2023-06-10T04:05:02;11.90;;;9.57;;
5845;SDS011;2949;50.778;7.094;2023-06-10T04:07:28;9.30;;;8.50;;
5845;SDS011;2949;50.778;7.094;2023-06-10T04:09:55;10.60;;;9.20;;
5845;SDS011;2949;50.778;7.094;2023-06-10T04:12:21;12.50;;;8.50;;
5845;SDS011;2949;50.778;7.094;2023-06-10T04:14:46;13.63;;;9.47;;
5845;SDS011;2949;50.778;7.094;2023-06-10T04:17:12;15.40;;;9.83;;
5845;SDS011;2949;50.778;7.094;2023-06-10T04:19:37;9.17;;;8.27;;
5845;SDS011;2949;50.778;7.094;2023-06-10T04:22:03;12.50;;;8.43;;
5845;SDS011;2949;50.778;7.094;2023-06-10T04:24:30;11.10;;;8.57;;
5845;SDS011;2949;50.778;7.094;2023-06-10T04:26:55;11.53;;;8.73;;
5845;SDS011;2949;50.778;7.094;2023-06-10T04:29:21;8.23;;;7.43;;
5845;SDS011;2949;50.778;7.094;2023-06-10T04:31:46;10.50;;;8.70;;
5845;SDS011;2949;50.778;7.094;2023-06-10T04:34:12;10.63;;;8.07;;
5845;SDS011;2949;50.778;7.094;2023-06-10T04:36:38;20.50;;;8.10;;
5845;SDS011;2949;50.778;7.094;2023-06-10T04:39:04;10.20;;;7.67;;
5845;SDS011;2949;50.778;7.094;2023-06-10T04:41:30;9.33;;;7.67;;
5845;SDS011;2949;50.778;7.094;2023-06-10T04:43:56;10.20;;;8.17;;
5845;SDS011;2949;50.778;7.094;2023-06-10T04:46:22;10.00;;;8.73;;
5845;SDS011;2949;50.778;7.094;2023-06-10T04:48:49;10.70;;;8.47;;
5845;SDS011;2949;50.778;7.094;2023-06-10T04:51:14;13.17;;;8.40;;
5845;SDS011;2949;50.778;7.094;2023-06-10T04:53:40;14.17;;;8.37;;
5845;SDS011;2949;50.778;7.094;2023-06-10T04:56:05;11.80;;;7.80;;
5845;SDS011;2949;50.778;7.094;2023-06-10T04:58:32;9.60;;;8.33;;
5845;SDS011;2949;50.778;7.094;2023-06-10T05:00:58;12.63;;;9.17;;
5845;SDS011;2949;50.778;7.094;2023-06-10T05:03:24;10.37;;;8.40;;
5845;SDS011;2949;50.778;7.094;2023-06-10T05:05:50;13.80;;;8.03;;
5845;SDS011;2949;50.778;7.094;2023-06-10T05:08:15;15.20;;;8.43;;
5845;SDS011;2949;50.778;7.094;2023-06-10T05:10:41;8.93;;;7.40;;
5845;SDS011;2949;50.778;7.094;2023-06-10T05:13:07;9.43;;;8.47;;
5845;SDS011;2949;50.778;7.094;2023-06-10T05:15:32;8.13;;;7.40;;
5845;SDS011;2949;50.778;7.094;2023-06-10T05:17:58;11.60;;;8.40;;
5845;SDS011;2949;50.778;7.094;2023-06-10T05:20:24;9.10;;;6.83;;
5845;SDS011;2949;50.778;7.094;2023-06-10T05:22:50;8.43;;;6.80;;
5845;SDS011;2949;50.778;7.094;2023-06-10T05:25:16;8.37;;;7.10;;
5845;SDS011;2949;50.778;7.094;2023-06-10T05:27:41;9.80;;;7.00;;
5845;SDS011;2949;50.778;7.094;2023-06-10T05:30:08;6.70;;;6.00;;
5845;SDS011;2949;50.778;7.094;2023-06-10T05:32:35;8.93;;;5.80;;
5845;SDS011;2949;50.778;7.094;2023-06-10T05:35:00;7.40;;;6.47;;
5845;SDS011;2949;50.778;7.094;2023-06-10T05:37:26;7.70;;;6.20;;
5845;SDS011;2949;50.778;7.094;2023-06-10T05:39:52;7.13;;;6.10;;
5845;SDS011;2949;50.778;7.094;2023-06-10T05:42:17;9.20;;;5.87;;
5845;SDS011;2949;50.778;7.094;2023-06-10T05:44:43;7.70;;;5.67;;
5845;SDS011;2949;50.778;7.094;2023-06-10T05:47:08;6.53;;;5.20;;
5845;SDS011;2949;50.778;7.094;2023-06-10T05:49:34;7.17;;;5.23;;
5845;SDS011;2949;50.778;7.094;2023-06-10T05:51:59;5.70;;;4.43;;
5845;SDS011;2949;50.778;7.094;2023-06-10T05:54:25;5.93;;;5.10;;
5845;SDS011;2949;50.778;7.094;2023-06-10T05:56:51;6.07;;;5.10;;
5845;SDS011;2949;50.778;7.094;2023-06-10T05:59:17;7.50;;;5.10;;
5845;SDS011;2949;50.778;7.094;2023-06-10T06:01:42;14.47;;;5.27;;
5845;SDS011;2949;50.778;7.094;2023-06-10T06:04:08;7.83;;;5.23;;
5845;SDS011;2949;50.778;7.094;2023-06-10T06:06:34;4.70;;;4.10;;
5845;SDS011;2949;50.778;7.094;2023-06-10T06:09:00;5.73;;;4.73;;
5845;SDS011;2949;50.778;7.094;2023-06-10T06:11:25;4.60;;;4.20;;
5845;SDS011;2949;50.778;7.094;2023-06-10T06:13:51;7.07;;;5.10;;
5845;SDS011;2949;50.778;7.094;2023-06-10T06:16:16;6.20;;;4.50;;
5845;SDS011;2949;50.778;7.094;2023-06-10T06:18:43;5.27;;;4.73;;
5845;SDS011;2949;50.778;7.094;2023-06-10T06:21:09;6.87;;;5.20;;
5845;SDS011;2949;50.778;7.094;2023-06-10T06:23:34;5.77;;;4.63;;
5845;SDS011;2949;50.778;7.094;2023-06-10T06:26:00;5.97;;;4.43;;
5845;SDS011;2949;50.778;7.094;2023-06-10T06:28:26;5.10;;;4.57;;
5845;SDS011;2949;50.778;7.094;2023-06-10T06:30:54;7.20;;;5.20;;
5845;SDS011;2949;50.778;7.094;2023-06-10T06:33:22;5.07;;;4.30;;
5845;SDS011;2949;50.778;7.094;2023-06-10T06:35:48;6.40;;;4.80;;
5845;SDS011;2949;50.778;7.094;2023-06-10T06:38:14;7.60;;;4.70;;
5845;SDS011;2949;50.778;7.094;2023-06-10T06:40:39;4.97;;;4.47;;
5845;SDS011;2949;50.778;7.094;2023-06-10T06:43:05;7.97;;;4.87;;
5845;SDS011;2949;50.778;7.094;2023-06-10T06:45:30;5.33;;;4.63;;
5845;SDS011;2949;50.778;7.094;2023-06-10T06:47:56;5.13;;;4.63;;
5845;SDS011;2949;50.778;7.094;2023-06-10T06:50:21;9.63;;;5.10;;
5845;SDS011;2949;50.778;7.094;2023-06-10T06:52:47;6.83;;;4.40;;
5845;SDS011;2949;50.778;7.094;2023-06-10T06:55:12;7.13;;;4.80;;
5845;SDS011;2949;50.778;7.094;2023-06-10T06:57:38;5.50;;;4.70;;
5845;SDS011;2949;50.778;7.094;2023-06-10T07:00:04;5.70;;;4.50;;
5845;SDS011;2949;50.778;7.094;2023-06-10T07:02:30;5.20;;;4.67;;
5845;SDS011;2949;50.778;7.094;2023-06-10T07:04:57;6.47;;;5.13;;
5845;SDS011;2949;50.778;7.094;2023-06-10T07:07:23;6.77;;;4.60;;
5845;SDS011;2949;50.778;7.094;2023-06-10T07:09:49;5.50;;;4.10;;
5845;SDS011;2949;50.778;7.094;2023-06-10T07:12:15;7.73;;;4.53;;
5845;SDS011;2949;50.778;7.094;2023-06-10T07:14:41;4.97;;;4.10;;
5845;SDS011;2949;50.778;7.094;2023-06-10T07:17:06;7.60;;;4.23;;
5845;SDS011;2949;50.778;7.094;2023-06-10T07:19:32;4.93;;;4.17;;
5845;SDS011;2949;50.778;7.094;2023-06-10T07:21:57;4.33;;;4.03;;
5845;SDS011;2949;50.778;7.094;2023-06-10T07:24:23;5.40;;;4.83;;
5845;SDS011;2949;50.778;7.094;2023-06-10T07:26:49;5.80;;;4.20;;
5845;SDS011;2949;50.778;7.094;2023-06-10T07:29:15;4.80;;;4.40;;
5845;SDS011;2949;50.778;7.094;2023-06-10T07:31:40;7.40;;;4.80;;
5845;SDS011;2949;50.778;7.094;2023-06-10T07:34:06;6.83;;;4.77;;
5845;SDS011;2949;50.778;7.094;2023-06-10T07:36:32;4.97;;;4.57;;
5845;SDS011;2949;50.778;7.094;2023-06-10T07:38:57;4.10;;;3.70;;
5845;SDS011;2949;50.778;7.094;2023-06-10T07:41:23;4.88;;;4.32;;
5845;SDS011;2949;50.778;7.094;2023-06-10T07:43:50;5.17;;;4.57;;
5845;SDS011;2949;50.778;7.094;2023-06-10T07:46:22;7.67;;;4.73;;
5845;SDS011;2949;50.778;7.094;2023-06-10T07:48:48;5.33;;;4.83;;
5845;SDS011;2949;50.778;7.094;2023-06-10T07:51:14;8.20;;;4.23;;
5845;SDS011;2949;50.778;7.094;2023-06-10T07:53:41;7.55;;;4.43;;
5845;SDS011;2949;50.778;7.094;2023-06-10T07:56:06;9.75;;;4.80;;
5845;SDS011;2949;50.778;7.094;2023-06-10T07:58:32;4.75;;;4.22;;
5845;SDS011;2949;50.778;7.094;2023-06-10T08:00:57;8.52;;;5.15;;
5845;SDS011;2949;50.778;7.094;2023-06-10T08:03:23;11.35;;;4.07;;
5845;SDS011;2949;50.778;7.094;2023-06-10T08:05:49;5.47;;;4.28;;
5845;SDS011;2949;50.778;7.094;2023-06-10T08:08:14;4.68;;;4.28;;
5845;SDS011;2949;50.778;7.094;2023-06-10T08:10:40;5.55;;;4.60;;
5845;SDS011;2949;50.778;7.094;2023-06-10T08:13:05;13.13;;;6.75;;
5845;SDS011;2949;50.778;7.094;2023-06-10T08:15:32;11.07;;;4.50;;
5845;SDS011;2949;50.778;7.094;2023-06-10T08:17:57;7.22;;;5.10;;
5845;SDS011;2949;50.778;7.094;2023-06-10T08:20:23;5.57;;;4.55;;
5845;SDS011;2949;50.778;7.094;2023-06-10T08:22:49;5.13;;;4.63;;
5845;SDS011;2949;50.778;7.094;2023-06-10T08:25:15;6.70;;;4.40;;
5845;SDS011;2949;50.778;7.094;2023-06-10T08:27:40;5.50;;;4.75;;
5845;SDS011;2949;50.778;7.094;2023-06-10T08:30:06;6.75;;;4.35;;
5845;SDS011;2949;50.778;7.094;2023-06-10T08:32:32;7.07;;;4.78;;
5845;SDS011;2949;50.778;7.094;2023-06-10T08:34:58;5.53;;;4.80;;
5845;SDS011;2949;50.778;7.094;2023-06-10T08:37:24;5.60;;;5.05;;
5845;SDS011;2949;50.778;7.094;2023-06-10T08:39:49;5.03;;;4.55;;
5845;SDS011;2949;50.778;7.094;2023-06-10T08:42:22;5.68;;;4.60;;
5845;SDS011;2949;50.778;7.094;2023-06-10T08:44:48;6.53;;;4.75;;
5845;SDS011;2949;50.778;7.094;2023-06-10T08:47:18;6.13;;;4.28;;
5845;SDS011;2949;50.778;7.094;2023-06-10T08:49:46;5.60;;;4.55;;
5845;SDS011;2949;50.778;7.094;2023-06-10T08:52:14;4.60;;;4.20;;
5845;SDS011;2949;50.778;7.094;2023-06-10T08:54:43;8.98;;;4.75;;
5845;SDS011;2949;50.778;7.094;2023-06-10T08:57:13;8.60;;;5.17;;
5845;SDS011;2949;50.778;7.094;2023-06-10T08:59:41;7.75;;;4.47;;
5845;SDS011;2949;50.778;7.094;2023-06-10T09:02:06;6.35;;;4.78;;
5845;SDS011;2949;50.778;7.094;2023-06-10T09:04:34;5.00;;;4.53;;
5845;SDS011;2949;50.778;7.094;2023-06-10T09:07:01;5.20;;;4.70;;
5845;SDS011;2949;50.778;7.094;2023-06-10T09:09:28;7.10;;;5.50;;
5845;SDS011;2949;50.778;7.094;2023-06-10T09:11:56;6.30;;;4.90;;
5845;SDS011;2949;50.778;7.094;2023-06-10T09:14:21;7.85;;;4.65;;
5845;SDS011;2949;50.778;7.094;2023-06-10T09:16:47;6.70;;;5.25;;
5845;SDS011;2949;50.778;7.094;2023-06-10T09:19:13;6.22;;;5.50;;
5845;SDS011;2949;50.778;7.094;2023-06-10T09:21:41;10.65;;;5.00;;
5845;SDS011;2949;50.778;7.094;2023-06-10T09:24:06;5.90;;;4.57;;
5845;SDS011;2949;50.778;7.094;2023-06-10T09:26:32;4.97;;;4.30;;
5845;SDS011;2949;50.778;7.094;2023-06-10T09:29:02;4.82;;;4.45;;
5845;SDS011;2949;50.778;7.094;2023-06-10T09:31:36;6.47;;;4.70;;
5845;SDS011;2949;50.778;7.094;2023-06-10T09:34:06;4.95;;;4.55;;
5845;SDS011;2949;50.778;7.094;2023-06-10T09:36:34;5.20;;;4.07;;
5845;SDS011;2949;50.778;7.094;2023-06-10T09:39:00;5.43;;;4.93;;
5845;SDS011;2949;50.778;7.094;2023-06-10T09:41:39;6.93;;;5.22;;
5845;SDS011;2949;50.778;7.094;2023-06-10T09:44:11;5.80;;;4.72;;
5845;SDS011;2949;50.778;7.094;2023-06-10T09:46:47;5.47;;;4.93;;
5845;SDS011;2949;50.778;7.094;2023-06-10T09:49:16;5.13;;;4.70;;
5845;SDS011;2949;50.778;7.094;2023-06-10T09:51:49;5.82;;;5.25;;
5845;SDS011;2949;50.778;7.094;2023-06-10T09:54:18;5.20;;;4.35;;
5845;SDS011;2949;50.778;7.094;2023-06-10T09:56:48;5.50;;;5.10;;
5845;SDS011;2949;50.778;7.094;2023-06-10T09:59:14;7.47;;;5.43;;
5845;SDS011;2949;50.778;7.094;2023-06-10T10:01:40;5.13;;;4.72;;
5845;SDS011;2949;50.778;7.094;2023-06-10T10:04:06;5.22;;;4.72;;
5845;SDS011;2949;50.778;7.094;2023-06-10T10:06:32;5.38;;;4.93;;
5845;SDS011;2949;50.778;7.094;2023-06-10T10:08:58;10.65;;;4.70;;
5845;SDS011;2949;50.778;7.094;2023-06-10T10:11:24;10.05;;;4.57;;
5845;SDS011;2949;50.778;7.094;2023-06-10T10:13:52;5.85;;;4.38;;
5845;SDS011;2949;50.778;7.094;2023-06-10T10:16:23;11.05;;;5.03;;
5845;SDS011;2949;50.778;7.094;2023-06-10T10:18:58;7.00;;;4.82;;
5845;SDS011;2949;50.778;7.094;2023-06-10T10:21:27;5.25;;;4.32;;
5845;SDS011;2949;50.778;7.094;2023-06-10T10:26:31;4.65;;;4.25;;
5845;SDS011;2949;50.778;7.094;2023-06-10T10:29:00;5.07;;;4.60;;
5845;SDS011;2949;50.778;7.094;2023-06-10T10:31:36;6.60;;;4.03;;
5845;SDS011;2949;50.778;7.094;2023-06-10T10:34:07;7.82;;;4.60;;
5845;SDS011;2949;50.778;7.094;2023-06-10T10:36:37;4.95;;;4.28;;
5845;SDS011;2949;50.778;7.094;2023-06-10T10:39:04;4.70;;;4.30;;
5845;SDS011;2949;50.778;7.094;2023-06-10T10:41:30;7.45;;;4.50;;
5845;SDS011;2949;50.778;7.094;2023-06-10T10:43:57;12.35;;;5.03;;
5845;SDS011;2949;50.778;7.094;2023-06-10T10:46:23;11.23;;;5.05;;
5845;SDS011;2949;50.778;7.094;2023-06-10T10:48:52;5.57;;;4.95;;
5845;SDS011;2949;50.778;7.094;2023-06-10T10:51:22;5.40;;;4.90;;
5845;SDS011;2949;50.778;7.094;2023-06-10T10:56:39;8.60;;;4.80;;
5845;SDS011;2949;50.778;7.094;2023-06-10T10:59:25;5.07;;;4.57;;
5845;SDS011;2949;50.778;7.094;2023-06-10T11:02:07;6.63;;;4.53;;
5845;SDS011;2949;50.778;7.094;2023-06-10T11:04:33;7.70;;;4.10;;
5845;SDS011;2949;50.778;7.094;2023-06-10T11:07:05;14.83;;;4.50;;
5845;SDS011;2949;50.778;7.094;2023-06-10T11:09:31;4.67;;;4.27;;
5845;SDS011;2949;50.778;7.094;2023-06-10T11:11:58;6.90;;;4.40;;
5845;SDS011;2949;50.778;7.094;2023-06-10T11:14:27;5.50;;;4.27;;
5845;SDS011;2949;50.778;7.094;2023-06-10T11:16:54;9.37;;;5.17;;
5845;SDS011;2949;50.778;7.094;2023-06-10T11:19:35;7.17;;;4.37;;
5845;SDS011;2949;50.778;7.094;2023-06-10T11:22:02;4.67;;;4.20;;
5845;SDS011;2949;50.778;7.094;2023-06-10T11:24:29;6.73;;;4.43;;
5845;SDS011;2949;50.778;7.094;2023-06-10T11:26:55;5.43;;;4.43;;
5845;SDS011;2949;50.778;7.094;2023-06-10T11:29:54;4.53;;;4.13;;
5845;SDS011;2949;50.778;7.094;2023-06-10T11:32:20;4.20;;;3.47;;
5845;SDS011;2949;50.778;7.094;2023-06-10T11:34:51;4.70;;;4.30;;
5845;SDS011;2949;50.778;7.094;2023-06-10T11:37:17;5.10;;;4.60;;
5845;SDS011;2949;50.778;7.094;2023-06-10T11:39:43;5.17;;;4.60;;
5845;SDS011;2949;50.778;7.094;2023-06-10T11:42:09;17.13;;;5.00;;
5845;SDS011;2949;50.778;7.094;2023-06-10T11:44:36;6.50;;;4.70;;
5845;SDS011;2949;50.778;7.094;2023-06-10T11:47:02;6.83;;;4.10;;
5845;SDS011;2949;50.778;7.094;2023-06-10T11:49:28;4.90;;;4.37;;
5845;SDS011;2949;50.778;7.094;2023-06-10T11:51:54;9.87;;;6.17;;
5845;SDS011;2949;50.778;7.094;2023-06-10T11:54:20;7.13;;;3.77;;
5845;SDS011;2949;50.778;7.094;2023-06-10T11:56:46;6.73;;;4.30;;
5845;SDS011;2949;50.778;7.094;2023-06-10T11:59:13;4.87;;;4.50;;
5845;SDS011;2949;50.778;7.094;2023-06-10T12:01:43;4.77;;;3.90;;
5845;SDS011;2949;50.778;7.094;2023-06-10T12:04:10;4.30;;;3.90;;
5845;SDS011;2949;50.778;7.094;2023-06-10T12:06:44;4.43;;;3.27;;
5845;SDS011;2949;50.778;7.094;2023-06-10T12:09:26;6.47;;;4.00;;
5845;SDS011;2949;50.778;7.094;2023-06-10T12:12:02;6.83;;;4.70;;
5845;SDS011;2949;50.778;7.094;2023-06-10T12:17:19;6.10;;;3.93;;
5845;SDS011;2949;50.778;7.094;2023-06-10T12:19:46;4.33;;;3.77;;
5845;SDS011;2949;50.778;7.094;2023-06-10T12:22:13;5.43;;;3.60;;
5845;SDS011;2949;50.778;7.094;2023-06-10T12:24:43;3.43;;;2.90;;
5845;SDS011;2949;50.778;7.094;2023-06-10T12:27:30;4.20;;;3.23;;
5845;SDS011;2949;50.778;7.094;2023-06-10T12:29:56;7.43;;;3.47;;
5845;SDS011;2949;50.778;7.094;2023-06-10T12:32:37;3.60;;;3.30;;
5845;SDS011;2949;50.778;7.094;2023-06-10T12:35:04;4.60;;;3.77;;
5845;SDS011;2949;50.778;7.094;2023-06-10T12:37:30;8.10;;;4.27;;
5845;SDS011;2949;50.778;7.094;2023-06-10T12:39:58;4.93;;;3.40;;
5845;SDS011;2949;50.778;7.094;2023-06-10T12:42:26;17.30;;;4.60;;
5845;SDS011;2949;50.778;7.094;2023-06-10T12:44:55;4.13;;;3.83;;
5845;SDS011;2949;50.778;7.094;2023-06-10T12:47:28;4.63;;;3.50;;
5845;SDS011;2949;50.778;7.094;2023-06-10T12:49:59;10.30;;;3.20;;
5845;SDS011;2949;50.778;7.094;2023-06-10T12:52:26;7.10;;;3.50;;
5845;SDS011;2949;50.778;7.094;2023-06-10T12:54:52;6.37;;;4.27;;
5845;SDS011;2949;50.778;7.094;2023-06-10T12:57:19;8.40;;;4.00;;
5845;SDS011;2949;50.778;7.094;2023-06-10T12:59:44;4.83;;;3.73;;
5845;SDS011;2949;50.778;7.094;2023-06-10T13:02:15;4.70;;;3.73;;
5845;SDS011;2949;50.778;7.094;2023-06-10T13:04:43;5.83;;;3.67;;
5845;SDS011;2949;50.778;7.094;2023-06-10T13:07:08;3.50;;;3.20;;
5845;SDS011;2949;50.778;7.094;2023-06-10T13:09:35;5.70;;;3.53;;
5845;SDS011;2949;50.778;7.094;2023-06-10T13:12:01;6.50;;;3.57;;
5845;SDS011;2949;50.778;7.094;2023-06-10T13:14:27;8.73;;;3.70;;
5845;SDS011;2949;50.778;7.094;2023-06-10T13:16:53;8.67;;;3.80;;
5845;SDS011;2949;50.778;7.094;2023-06-10T13:19:20;4.03;;;3.73;;
5845;SDS011;2949;50.778;7.094;2023-06-10T13:21:48;3.93;;;3.53;;
5845;SDS011;2949;50.778;7.094;2023-06-10T13:24:14;7.20;;;3.33;;
5845;SDS011;2949;50.778;7.094;2023-06-10T13:26:40;4.00;;;3.57;;
5845;SDS011;2949;50.778;7.094;2023-06-10T13:29:05;4.10;;;3.20;;
5845;SDS011;2949;50.778;7.094;2023-06-10T13:31:32;4.70;;;3.43;;
5845;SDS011;2949;50.778;7.094;2023-06-10T13:33:58;6.90;;;3.60;;
5845;SDS011;2949;50.778;7.094;2023-06-10T13:36:24;4.10;;;3.70;;
5845;SDS011;2949;50.778;7.094;2023-06-10T13:38:49;6.23;;;3.60;;
5845;SDS011;2949;50.778;7.094;2023-06-10T13:41:15;5.30;;;3.67;;
5845;SDS011;2949;50.778;7.094;2023-06-10T13:43:41;3.93;;;3.63;;
5845;SDS011;2949;50.778;7.094;2023-06-10T13:46:06;4.37;;;3.40;;
5845;SDS011;2949;50.778;7.094;2023-06-10T13:48:32;6.17;;;3.83;;
5845;SDS011;2949;50.778;7.094;2023-06-10T13:50:58;3.67;;;3.33;;
5845;SDS011;2949;50.778;7.094;2023-06-10T13:53:24;5.03;;;3.80;;
5845;SDS011;2949;50.778;7.094;2023-06-10T13:55:50;3.23;;;3.00;;
5845;SDS011;2949;50.778;7.094;2023-06-10T13:58:16;3.20;;;2.90;;
5845;SDS011;2949;50.778;7.094;2023-06-10T14:00:41;4.20;;;3.67;;
5845;SDS011;2949;50.778;7.094;2023-06-10T14:03:07;4.70;;;4.30;;
5845;SDS011;2949;50.778;7.094;2023-06-10T14:05:33;4.60;;;3.37;;
5845;SDS011;2949;50.778;7.094;2023-06-10T14:07:59;3.90;;;3.53;;
5845;SDS011;2949;50.778;7.094;2023-06-10T14:10:24;3.70;;;3.40;;
5845;SDS011;2949;50.778;7.094;2023-06-10T14:12:50;3.93;;;3.50;;
5845;SDS011;2949;50.778;7.094;2023-06-10T14:15:16;6.80;;;3.90;;
5845;SDS011;2949;50.778;7.094;2023-06-10T14:17:42;7.60;;;4.83;;
5845;SDS011;2949;50.778;7.094;2023-06-10T14:20:07;5.90;;;3.90;;
5845;SDS011;2949;50.778;7.094;2023-06-10T14:22:33;4.97;;;3.73;;
5845;SDS011;2949;50.778;7.094;2023-06-10T14:24:59;3.80;;;3.50;;
5845;SDS011;2949;50.778;7.094;2023-06-10T14:27:24;3.37;;;3.07;;
5845;SDS011;2949;50.778;7.094;2023-06-10T14:29:50;5.50;;;3.43;;
5845;SDS011;2949;50.778;7.094;2023-06-10T14:32:15;3.57;;;3.27;;
5845;SDS011;2949;50.778;7.094;2023-06-10T14:34:41;4.10;;;3.60;;
5845;SDS011;2949;50.778;7.094;2023-06-10T14:37:07;16.47;;;3.97;;
5845;SDS011;2949;50.778;7.094;2023-06-10T14:39:33;6.57;;;5.80;;
5845;SDS011;2949;50.778;7.094;2023-06-10T14:41:58;6.60;;;6.10;;
5845;SDS011;2949;50.778;7.094;2023-06-10T14:44:24;4.37;;;3.97;;
5845;SDS011;2949;50.778;7.094;2023-06-10T14:46:49;15.97;;;10.90;;
5845;SDS011;2949;50.778;7.094;2023-06-10T14:49:15;12.67;;;6.13;;
5845;SDS011;2949;50.778;7.094;2023-06-10T14:51:40;13.83;;;5.03;;
5845;SDS011;2949;50.778;7.094;2023-06-10T14:54:06;9.07;;;6.07;;
5845;SDS011;2949;50.778;7.094;2023-06-10T14:56:31;10.00;;;5.23;;
5845;SDS011;2949;50.778;7.094;2023-06-10T14:58:57;11.30;;;4.90;;
5845;SDS011;2949;50.778;7.094;2023-06-10T15:01:22;10.30;;;5.97;;
5845;SDS011;2949;50.778;7.094;2023-06-10T15:03:48;3.93;;;3.53;;
5845;SDS011;2949;50.778;7.094;2023-06-10T15:06:13;3.97;;;3.50;;
5845;SDS011;2949;50.778;7.094;2023-06-10T15:08:42;4.37;;;3.47;;
5845;SDS011;2949;50.778;7.094;2023-06-10T15:11:07;4.20;;;3.80;;
5845;SDS011;2949;50.778;7.094;2023-06-10T15:13:33;7.77;;;6.20;;
5845;SDS011;2949;50.778;7.094;2023-06-10T15:15:58;3.57;;;3.27;;
5845;SDS011;2949;50.778;7.094;2023-06-10T15:18:24;11.03;;;7.03;;
5845;SDS011;2949;50.778;7.094;2023-06-10T15:20:49;15.33;;;9.27;;